sensor_id;sensor_type;location;lat;lon;timestamp;P1;durP1;ratioP1;P2;durP2;ratioP2
54123;SDS011;55741;53.252;5.788;2022-08-11T00:03:08;19.30;;;10.35;;
54123;SDS011;55741;53.252;5.788;2022-08-11T00:05:52;10.73;;;9.20;;
54123;SDS011;55741;53.252;5.788;2022-08-11T00:08:23;10.38;;;9.38;;
54123;SDS011;55741;53.252;5.788;2022-08-11T00:13:37;12.88;;;9.20;;
54123;SDS011;55741;53.252;5.788;2022-08-11T00:16:27;11.13;;;9.35;;
54123;SDS011;55741;53.252;5.788;2022-08-11T00:18:53;12.45;;;9.85;;
54123;SDS011;55741;53.252;5.788;2022-08-11T00:21:21;12.43;;;9.60;;
54123;SDS011;55741;53.252;5.788;2022-08-11T00:23:55;12.80;;;8.90;;
54123;SDS011;55741;53.252;5.788;2022-08-11T00:26:24;12.20;;;9.18;;
54123;SDS011;55741;53.252;5.788;2022-08-11T00:28:52;11.10;;;8.05;;
54123;SDS011;55741;53.252;5.788;2022-08-11T00:31:28;10.65;;;8.77;;
54123;SDS011;55741;53.252;5.788;2022-08-11T00:33:56;10.65;;;8.43;;
54123;SDS011;55741;53.252;5.788;2022-08-11T00:36:28;13.13;;;8.68;;
54123;SDS011;55741;53.252;5.788;2022-08-11T00:39:14;10.63;;;9.35;;
54123;SDS011;55741;53.252;5.788;2022-08-11T00:50:37;10.10;;;8.50;;
54123;SDS011;55741;53.252;5.788;2022-08-11T01:03:53;12.23;;;8.90;;
54123;SDS011;55741;53.252;5.788;2022-08-11T01:23:33;9.85;;;8.85;;
54123;SDS011;55741;53.252;5.788;2022-08-11T01:41:00;13.77;;;10.18;;
54123;SDS011;55741;53.252;5.788;2022-08-11T01:43:09;13.48;;;9.27;;
54123;SDS011;55741;53.252;5.788;2022-08-11T01:49:02;11.30;;;8.48;;
54123;SDS011;55741;53.252;5.788;2022-08-11T01:54:45;9.38;;;7.72;;
54123;SDS011;55741;53.252;5.788;2022-08-11T01:57:35;12.68;;;8.95;;
54123;SDS011;55741;53.252;5.788;2022-08-11T02:02:44;9.68;;;8.68;;
54123;SDS011;55741;53.252;5.788;2022-08-11T02:19:33;10.50;;;8.20;;
54123;SDS011;55741;53.252;5.788;2022-08-11T02:22:29;12.77;;;8.30;;
54123;SDS011;55741;53.252;5.788;2022-08-11T02:25:44;10.60;;;8.75;;
54123;SDS011;55741;53.252;5.788;2022-08-11T02:28:22;10.40;;;8.07;;
54123;SDS011;55741;53.252;5.788;2022-08-11T02:31:06;8.88;;;7.65;;
54123;SDS011;55741;53.252;5.788;2022-08-11T02:37:09;10.88;;;7.32;;
54123;SDS011;55741;53.252;5.788;2022-08-11T02:56:41;9.02;;;6.07;;
54123;SDS011;55741;53.252;5.788;2022-08-11T03:02:14;8.02;;;6.47;;
54123;SDS011;55741;53.252;5.788;2022-08-11T03:10:25;9.50;;;6.45;;
54123;SDS011;55741;53.252;5.788;2022-08-11T03:13:02;10.40;;;7.60;;
54123;SDS011;55741;53.252;5.788;2022-08-11T03:21:46;10.70;;;7.22;;
54123;SDS011;55741;53.252;5.788;2022-08-11T03:36:18;12.50;;;8.45;;
54123;SDS011;55741;53.252;5.788;2022-08-11T03:44:36;11.88;;;7.90;;
54123;SDS011;55741;53.252;5.788;2022-08-11T03:47:16;10.45;;;7.45;;
54123;SDS011;55741;53.252;5.788;2022-08-11T03:52:43;14.75;;;8.25;;
54123;SDS011;55741;53.252;5.788;2022-08-11T03:55:14;10.07;;;7.68;;
54123;SDS011;55741;53.252;5.788;2022-08-11T04:14:48;11.80;;;8.30;;
54123;SDS011;55741;53.252;5.788;2022-08-11T04:20:59;10.68;;;8.75;;
54123;SDS011;55741;53.252;5.788;2022-08-11T04:27:28;12.35;;;8.32;;
54123;SDS011;55741;53.252;5.788;2022-08-11T04:47:08;12.20;;;8.50;;
54123;SDS011;55741;53.252;5.788;2022-08-11T04:53:18;15.88;;;9.65;;
54123;SDS011;55741;53.252;5.788;2022-08-11T04:56:28;13.23;;;9.43;;
54123;SDS011;55741;53.252;5.788;2022-08-11T05:15:41;16.63;;;9.35;;
54123;SDS011;55741;53.252;5.788;2022-08-11T05:18:31;12.50;;;9.77;;
54123;SDS011;55741;53.252;5.788;2022-08-11T05:24:10;15.23;;;10.40;;
54123;SDS011;55741;53.252;5.788;2022-08-11T05:27:03;11.68;;;10.23;;
54123;SDS011;55741;53.252;5.788;2022-08-11T05:29:56;11.50;;;9.85;;
54123;SDS011;55741;53.252;5.788;2022-08-11T05:32:45;17.52;;;11.10;;
54123;SDS011;55741;53.252;5.788;2022-08-11T05:35:43;15.15;;;11.93;;
54123;SDS011;55741;53.252;5.788;2022-08-11T05:38:17;15.55;;;12.15;;
54123;SDS011;55741;53.252;5.788;2022-08-11T05:41:05;16.77;;;12.70;;
54123;SDS011;55741;53.252;5.788;2022-08-11T05:43:50;16.70;;;12.10;;
54123;SDS011;55741;53.252;5.788;2022-08-11T05:46:41;20.15;;;11.00;;
54123;SDS011;55741;53.252;5.788;2022-08-11T05:49:28;14.18;;;10.57;;
54123;SDS011;55741;53.252;5.788;2022-08-11T05:52:19;16.50;;;12.98;;
54123;SDS011;55741;53.252;5.788;2022-08-11T05:55:07;15.98;;;11.60;;
54123;SDS011;55741;53.252;5.788;2022-08-11T05:57:56;16.35;;;12.52;;
54123;SDS011;55741;53.252;5.788;2022-08-11T06:00:26;17.08;;;11.90;;
54123;SDS011;55741;53.252;5.788;2022-08-11T06:02:54;16.15;;;12.40;;
54123;SDS011;55741;53.252;5.788;2022-08-11T06:05:34;19.20;;;13.00;;
54123;SDS011;55741;53.252;5.788;2022-08-11T06:08:03;14.48;;;12.65;;
54123;SDS011;55741;53.252;5.788;2022-08-11T06:10:35;15.73;;;12.68;;
54123;SDS011;55741;53.252;5.788;2022-08-11T06:13:02;19.33;;;13.07;;
54123;SDS011;55741;53.252;5.788;2022-08-11T06:15:31;17.33;;;12.63;;
54123;SDS011;55741;53.252;5.788;2022-08-11T06:17:59;20.30;;;13.85;;
54123;SDS011;55741;53.252;5.788;2022-08-11T06:20:29;15.30;;;12.57;;
54123;SDS011;55741;53.252;5.788;2022-08-11T06:23:01;23.02;;;13.73;;
54123;SDS011;55741;53.252;5.788;2022-08-11T06:25:30;22.98;;;13.73;;
54123;SDS011;55741;53.252;5.788;2022-08-11T06:28:02;20.73;;;14.85;;
54123;SDS011;55741;53.252;5.788;2022-08-11T06:30:32;17.48;;;13.50;;
54123;SDS011;55741;53.252;5.788;2022-08-11T06:32:59;16.58;;;13.15;;
54123;SDS011;55741;53.252;5.788;2022-08-11T06:35:32;16.58;;;12.52;;
54123;SDS011;55741;53.252;5.788;2022-08-11T06:41:17;15.30;;;12.57;;
54123;SDS011;55741;53.252;5.788;2022-08-11T06:46:45;22.17;;;12.30;;
54123;SDS011;55741;53.252;5.788;2022-08-11T06:49:13;15.82;;;12.40;;
54123;SDS011;55741;53.252;5.788;2022-08-11T06:51:59;16.38;;;11.85;;
54123;SDS011;55741;53.252;5.788;2022-08-11T06:54:29;19.15;;;11.25;;
54123;SDS011;55741;53.252;5.788;2022-08-11T06:56:58;16.00;;;11.57;;
54123;SDS011;55741;53.252;5.788;2022-08-11T07:02:33;13.20;;;9.93;;
54123;SDS011;55741;53.252;5.788;2022-08-11T07:05:14;14.77;;;10.20;;
54123;SDS011;55741;53.252;5.788;2022-08-11T07:14:32;12.48;;;8.68;;
54123;SDS011;55741;53.252;5.788;2022-08-11T07:17:21;10.52;;;8.05;;
54123;SDS011;55741;53.252;5.788;2022-08-11T07:19:50;14.82;;;8.25;;
54123;SDS011;55741;53.252;5.788;2022-08-11T07:22:42;12.25;;;8.85;;
54123;SDS011;55741;53.252;5.788;2022-08-11T07:25:32;11.65;;;7.88;;
54123;SDS011;55741;53.252;5.788;2022-08-11T07:28:21;11.60;;;8.52;;
54123;SDS011;55741;53.252;5.788;2022-08-11T07:31:11;11.32;;;7.35;;
54123;SDS011;55741;53.252;5.788;2022-08-11T07:33:49;10.98;;;8.07;;
54123;SDS011;55741;53.252;5.788;2022-08-11T07:36:19;14.10;;;7.75;;
54123;SDS011;55741;53.252;5.788;2022-08-11T07:38:48;11.82;;;7.60;;
54123;SDS011;55741;53.252;5.788;2022-08-11T07:41:18;11.02;;;7.35;;
54123;SDS011;55741;53.252;5.788;2022-08-11T07:43:54;9.98;;;7.18;;
54123;SDS011;55741;53.252;5.788;2022-08-11T07:46:42;7.75;;;6.68;;
54123;SDS011;55741;53.252;5.788;2022-08-11T07:49:30;11.35;;;7.25;;
54123;SDS011;55741;53.252;5.788;2022-08-11T07:52:18;10.85;;;6.28;;
54123;SDS011;55741;53.252;5.788;2022-08-11T07:54:55;10.68;;;6.82;;
54123;SDS011;55741;53.252;5.788;2022-08-11T07:57:27;7.05;;;6.35;;
54123;SDS011;55741;53.252;5.788;2022-08-11T08:00:13;11.20;;;6.53;;
54123;SDS011;55741;53.252;5.788;2022-08-11T08:02:58;13.05;;;6.47;;
54123;SDS011;55741;53.252;5.788;2022-08-11T08:05:44;8.10;;;6.85;;
54123;SDS011;55741;53.252;5.788;2022-08-11T08:08:31;14.98;;;7.07;;
54123;SDS011;55741;53.252;5.788;2022-08-11T08:11:15;8.50;;;6.68;;
54123;SDS011;55741;53.252;5.788;2022-08-11T08:14:03;7.43;;;5.22;;
54123;SDS011;55741;53.252;5.788;2022-08-11T08:16:49;8.57;;;5.75;;
54123;SDS011;55741;53.252;5.788;2022-08-11T08:19:34;6.93;;;4.72;;
54123;SDS011;55741;53.252;5.788;2022-08-11T08:22:01;9.38;;;4.95;;
54123;SDS011;55741;53.252;5.788;2022-08-11T08:24:29;10.77;;;5.40;;
54123;SDS011;55741;53.252;5.788;2022-08-11T08:26:56;8.82;;;4.82;;
54123;SDS011;55741;53.252;5.788;2022-08-11T08:29:23;7.47;;;4.70;;
54123;SDS011;55741;53.252;5.788;2022-08-11T08:32:16;8.82;;;5.00;;
54123;SDS011;55741;53.252;5.788;2022-08-11T08:34:43;6.70;;;4.85;;
54123;SDS011;55741;53.252;5.788;2022-08-11T08:37:11;6.60;;;3.83;;
54123;SDS011;55741;53.252;5.788;2022-08-11T08:39:38;5.80;;;3.40;;
54123;SDS011;55741;53.252;5.788;2022-08-11T08:42:08;5.32;;;4.15;;
54123;SDS011;55741;53.252;5.788;2022-08-11T08:44:38;6.35;;;4.38;;
54123;SDS011;55741;53.252;5.788;2022-08-11T08:47:14;7.93;;;3.88;;
54123;SDS011;55741;53.252;5.788;2022-08-11T08:49:44;10.23;;;4.03;;
54123;SDS011;55741;53.252;5.788;2022-08-11T08:52:21;6.78;;;3.75;;
54123;SDS011;55741;53.252;5.788;2022-08-11T08:54:49;7.78;;;3.72;;
54123;SDS011;55741;53.252;5.788;2022-08-11T08:57:19;10.68;;;3.45;;
54123;SDS011;55741;53.252;5.788;2022-08-11T08:59:48;4.43;;;3.03;;
54123;SDS011;55741;53.252;5.788;2022-08-11T09:02:16;7.43;;;3.10;;
54123;SDS011;55741;53.252;5.788;2022-08-11T09:04:44;5.45;;;3.92;;
54123;SDS011;55741;53.252;5.788;2022-08-11T09:07:12;7.03;;;3.28;;
54123;SDS011;55741;53.252;5.788;2022-08-11T09:09:46;7.03;;;3.60;;
54123;SDS011;55741;53.252;5.788;2022-08-11T09:12:13;9.10;;;3.10;;
54123;SDS011;55741;53.252;5.788;2022-08-11T09:14:42;6.25;;;3.00;;
54123;SDS011;55741;53.252;5.788;2022-08-11T09:17:31;6.50;;;3.05;;
54123;SDS011;55741;53.252;5.788;2022-08-11T09:20:11;4.55;;;2.70;;
54123;SDS011;55741;53.252;5.788;2022-08-11T09:22:39;5.68;;;2.85;;
54123;SDS011;55741;53.252;5.788;2022-08-11T09:25:30;7.63;;;3.13;;
54123;SDS011;55741;53.252;5.788;2022-08-11T09:28:18;7.05;;;2.60;;
54123;SDS011;55741;53.252;5.788;2022-08-11T09:30:47;4.43;;;2.60;;
54123;SDS011;55741;53.252;5.788;2022-08-11T09:33:18;4.57;;;2.67;;
54123;SDS011;55741;53.252;5.788;2022-08-11T09:35:45;8.30;;;2.25;;
54123;SDS011;55741;53.252;5.788;2022-08-11T09:38:14;8.30;;;2.60;;
54123;SDS011;55741;53.252;5.788;2022-08-11T09:41:03;6.13;;;2.35;;
54123;SDS011;55741;53.252;5.788;2022-08-11T09:43:32;7.43;;;2.58;;
54123;SDS011;55741;53.252;5.788;2022-08-11T09:46:23;10.13;;;3.05;;
54123;SDS011;55741;53.252;5.788;2022-08-11T09:48:51;7.07;;;3.00;;
54123;SDS011;55741;53.252;5.788;2022-08-11T09:51:21;3.90;;;2.70;;
54123;SDS011;55741;53.252;5.788;2022-08-11T09:53:48;9.70;;;2.60;;
54123;SDS011;55741;53.252;5.788;2022-08-11T09:56:15;4.75;;;2.45;;
54123;SDS011;55741;53.252;5.788;2022-08-11T09:59:02;6.30;;;2.40;;
54123;SDS011;55741;53.252;5.788;2022-08-11T10:01:30;9.43;;;2.40;;
54123;SDS011;55741;53.252;5.788;2022-08-11T10:04:25;8.68;;;3.17;;
54123;SDS011;55741;53.252;5.788;2022-08-11T10:07:07;11.95;;;3.90;;
54123;SDS011;55741;53.252;5.788;2022-08-11T10:09:51;4.88;;;2.60;;
54123;SDS011;55741;53.252;5.788;2022-08-11T10:12:29;5.60;;;2.30;;
54123;SDS011;55741;53.252;5.788;2022-08-11T10:15:01;6.55;;;2.50;;
54123;SDS011;55741;53.252;5.788;2022-08-11T10:17:48;7.25;;;2.25;;
54123;SDS011;55741;53.252;5.788;2022-08-11T10:20:38;6.60;;;2.45;;
54123;SDS011;55741;53.252;5.788;2022-08-11T10:23:05;10.82;;;2.58;;
54123;SDS011;55741;53.252;5.788;2022-08-11T10:25:54;4.60;;;2.50;;
54123;SDS011;55741;53.252;5.788;2022-08-11T10:28:40;7.05;;;2.63;;
54123;SDS011;55741;53.252;5.788;2022-08-11T10:31:07;4.93;;;2.60;;
54123;SDS011;55741;53.252;5.788;2022-08-11T10:33:52;5.95;;;2.35;;
54123;SDS011;55741;53.252;5.788;2022-08-11T10:36:46;5.05;;;2.60;;
54123;SDS011;55741;53.252;5.788;2022-08-11T10:39:16;6.88;;;2.33;;
54123;SDS011;55741;53.252;5.788;2022-08-11T10:41:44;6.47;;;2.50;;
54123;SDS011;55741;53.252;5.788;2022-08-11T10:44:37;4.72;;;2.47;;
54123;SDS011;55741;53.252;5.788;2022-08-11T10:47:07;5.10;;;2.45;;
54123;SDS011;55741;53.252;5.788;2022-08-11T10:50:09;4.20;;;2.15;;
54123;SDS011;55741;53.252;5.788;2022-08-11T10:52:57;12.05;;;2.50;;
54123;SDS011;55741;53.252;5.788;2022-08-11T10:55:43;3.88;;;2.50;;
54123;SDS011;55741;53.252;5.788;2022-08-11T10:58:29;6.57;;;2.70;;
54123;SDS011;55741;53.252;5.788;2022-08-11T11:01:14;4.90;;;2.30;;
54123;SDS011;55741;53.252;5.788;2022-08-11T11:09:12;8.20;;;3.37;;
54123;SDS011;55741;53.252;5.788;2022-08-11T11:11:47;7.57;;;2.80;;
54123;SDS011;55741;53.252;5.788;2022-08-11T11:14:51;4.32;;;2.78;;
54123;SDS011;55741;53.252;5.788;2022-08-11T11:17:38;3.83;;;2.53;;
54123;SDS011;55741;53.252;5.788;2022-08-11T11:20:32;6.43;;;2.30;;
54123;SDS011;55741;53.252;5.788;2022-08-11T11:23:02;7.47;;;3.20;;
54123;SDS011;55741;53.252;5.788;2022-08-11T11:34:10;4.47;;;2.45;;
54123;SDS011;55741;53.252;5.788;2022-08-11T11:36:56;8.18;;;2.63;;
54123;SDS011;55741;53.252;5.788;2022-08-11T11:39:25;7.05;;;2.40;;
54123;SDS011;55741;53.252;5.788;2022-08-11T11:41:54;4.43;;;2.42;;
54123;SDS011;55741;53.252;5.788;2022-08-11T11:44:22;3.83;;;2.53;;
54123;SDS011;55741;53.252;5.788;2022-08-11T11:46:49;5.13;;;2.70;;
54123;SDS011;55741;53.252;5.788;2022-08-11T11:49:17;4.30;;;2.35;;
54123;SDS011;55741;53.252;5.788;2022-08-11T11:51:48;5.32;;;2.60;;
54123;SDS011;55741;53.252;5.788;2022-08-11T11:54:17;4.32;;;2.10;;
54123;SDS011;55741;53.252;5.788;2022-08-11T11:56:48;4.03;;;2.22;;
54123;SDS011;55741;53.252;5.788;2022-08-11T11:59:18;7.53;;;2.35;;
54123;SDS011;55741;53.252;5.788;2022-08-11T12:02:05;7.97;;;2.50;;
54123;SDS011;55741;53.252;5.788;2022-08-11T12:04:33;8.57;;;2.33;;
54123;SDS011;55741;53.252;5.788;2022-08-11T12:07:02;5.82;;;2.05;;
54123;SDS011;55741;53.252;5.788;2022-08-11T12:09:48;4.68;;;2.13;;
54123;SDS011;55741;53.252;5.788;2022-08-11T12:12:15;5.65;;;2.60;;
54123;SDS011;55741;53.252;5.788;2022-08-11T12:14:59;5.25;;;2.22;;
54123;SDS011;55741;53.252;5.788;2022-08-11T12:17:26;6.85;;;2.42;;
54123;SDS011;55741;53.252;5.788;2022-08-11T12:19:52;6.35;;;2.53;;
54123;SDS011;55741;53.252;5.788;2022-08-11T12:22:18;5.07;;;2.25;;
54123;SDS011;55741;53.252;5.788;2022-08-11T12:25:03;3.78;;;1.95;;
54123;SDS011;55741;53.252;5.788;2022-08-11T12:27:49;4.72;;;2.15;;
54123;SDS011;55741;53.252;5.788;2022-08-11T12:30:20;4.93;;;2.28;;
54123;SDS011;55741;53.252;5.788;2022-08-11T12:32:46;8.77;;;2.60;;
54123;SDS011;55741;53.252;5.788;2022-08-11T12:35:13;5.03;;;2.88;;
54123;SDS011;55741;53.252;5.788;2022-08-11T12:37:58;11.82;;;3.17;;
54123;SDS011;55741;53.252;5.788;2022-08-11T12:40:26;7.05;;;2.90;;
54123;SDS011;55741;53.252;5.788;2022-08-11T12:43:15;8.85;;;3.15;;
54123;SDS011;55741;53.252;5.788;2022-08-11T12:46:03;7.43;;;3.38;;
54123;SDS011;55741;53.252;5.788;2022-08-11T12:48:32;7.57;;;3.05;;
54123;SDS011;55741;53.252;5.788;2022-08-11T12:51:21;6.13;;;2.88;;
54123;SDS011;55741;53.252;5.788;2022-08-11T12:54:09;4.07;;;2.50;;
54123;SDS011;55741;53.252;5.788;2022-08-11T12:56:42;4.77;;;3.10;;
54123;SDS011;55741;53.252;5.788;2022-08-11T12:59:29;8.27;;;2.90;;
54123;SDS011;55741;53.252;5.788;2022-08-11T13:02:15;9.70;;;4.07;;
54123;SDS011;55741;53.252;5.788;2022-08-11T13:05:01;6.78;;;2.92;;
54123;SDS011;55741;53.252;5.788;2022-08-11T13:07:28;7.78;;;2.90;;
54123;SDS011;55741;53.252;5.788;2022-08-11T13:09:57;6.68;;;2.88;;
54123;SDS011;55741;53.252;5.788;2022-08-11T13:12:30;8.30;;;3.10;;
54123;SDS011;55741;53.252;5.788;2022-08-11T13:15:22;7.78;;;2.70;;
54123;SDS011;55741;53.252;5.788;2022-08-11T13:17:50;7.30;;;2.90;;
54123;SDS011;55741;53.252;5.788;2022-08-11T13:20:18;5.93;;;2.75;;
54123;SDS011;55741;53.252;5.788;2022-08-11T13:22:50;8.10;;;3.00;;
54123;SDS011;55741;53.252;5.788;2022-08-11T13:25:20;6.07;;;2.63;;
54123;SDS011;55741;53.252;5.788;2022-08-11T13:27:48;6.65;;;2.70;;
54123;SDS011;55741;53.252;5.788;2022-08-11T13:30:16;6.72;;;2.42;;
54123;SDS011;55741;53.252;5.788;2022-08-11T13:33:03;6.88;;;2.63;;
54123;SDS011;55741;53.252;5.788;2022-08-11T13:35:29;6.72;;;2.45;;
54123;SDS011;55741;53.252;5.788;2022-08-11T13:37:57;4.70;;;2.60;;
54123;SDS011;55741;53.252;5.788;2022-08-11T13:40:25;7.53;;;2.50;;
54123;SDS011;55741;53.252;5.788;2022-08-11T13:42:52;8.82;;;2.53;;
54123;SDS011;55741;53.252;5.788;2022-08-11T13:45:21;5.60;;;2.53;;
54123;SDS011;55741;53.252;5.788;2022-08-11T13:47:48;11.35;;;2.45;;
54123;SDS011;55741;53.252;5.788;2022-08-11T13:50:17;5.28;;;2.30;;
54123;SDS011;55741;53.252;5.788;2022-08-11T13:52:43;4.53;;;2.65;;
54123;SDS011;55741;53.252;5.788;2022-08-11T13:55:11;7.28;;;2.05;;
54123;SDS011;55741;53.252;5.788;2022-08-11T13:57:50;6.97;;;2.35;;
54123;SDS011;55741;53.252;5.788;2022-08-11T14:00:18;6.13;;;2.20;;
54123;SDS011;55741;53.252;5.788;2022-08-11T14:02:46;9.13;;;2.35;;
54123;SDS011;55741;53.252;5.788;2022-08-11T14:05:15;4.97;;;2.63;;
54123;SDS011;55741;53.252;5.788;2022-08-11T14:07:52;3.60;;;2.10;;
54123;SDS011;55741;53.252;5.788;2022-08-11T14:10:24;5.47;;;2.63;;
54123;SDS011;55741;53.252;5.788;2022-08-11T14:12:56;8.02;;;2.75;;
54123;SDS011;55741;53.252;5.788;2022-08-11T14:21:11;4.38;;;2.45;;
54123;SDS011;55741;53.252;5.788;2022-08-11T14:23:59;5.82;;;2.70;;
54123;SDS011;55741;53.252;5.788;2022-08-11T14:26:28;4.15;;;2.20;;
54123;SDS011;55741;53.252;5.788;2022-08-11T14:28:59;5.18;;;3.25;;
54123;SDS011;55741;53.252;5.788;2022-08-11T14:31:29;4.30;;;2.67;;
54123;SDS011;55741;53.252;5.788;2022-08-11T14:34:00;5.07;;;2.60;;
54123;SDS011;55741;53.252;5.788;2022-08-11T14:36:33;5.60;;;2.30;;
54123;SDS011;55741;53.252;5.788;2022-08-11T14:39:07;4.78;;;2.53;;
54123;SDS011;55741;53.252;5.788;2022-08-11T14:41:44;4.55;;;2.17;;
54123;SDS011;55741;53.252;5.788;2022-08-11T14:44:31;6.13;;;2.30;;
54123;SDS011;55741;53.252;5.788;2022-08-11T14:47:18;7.38;;;2.20;;
54123;SDS011;55741;53.252;5.788;2022-08-11T14:49:45;6.35;;;2.33;;
54123;SDS011;55741;53.252;5.788;2022-08-11T14:52:13;6.00;;;2.72;;
54123;SDS011;55741;53.252;5.788;2022-08-11T14:54:45;6.10;;;2.92;;
54123;SDS011;55741;53.252;5.788;2022-08-11T14:57:37;6.13;;;2.58;;
54123;SDS011;55741;53.252;5.788;2022-08-11T15:00:06;4.75;;;2.38;;
54123;SDS011;55741;53.252;5.788;2022-08-11T15:02:38;4.57;;;2.10;;
54123;SDS011;55741;53.252;5.788;2022-08-11T15:05:23;5.50;;;2.30;;
54123;SDS011;55741;53.252;5.788;2022-08-11T15:07:51;5.10;;;2.08;;
54123;SDS011;55741;53.252;5.788;2022-08-11T15:10:19;3.50;;;2.03;;
54123;SDS011;55741;53.252;5.788;2022-08-11T15:12:46;7.85;;;2.15;;
54123;SDS011;55741;53.252;5.788;2022-08-11T15:15:13;5.45;;;2.20;;
54123;SDS011;55741;53.252;5.788;2022-08-11T15:17:59;8.35;;;2.30;;
54123;SDS011;55741;53.252;5.788;2022-08-11T15:20:28;5.75;;;2.30;;
54123;SDS011;55741;53.252;5.788;2022-08-11T15:23:13;5.18;;;2.30;;
54123;SDS011;55741;53.252;5.788;2022-08-11T15:26:41;8.55;;;2.50;;
54123;SDS011;55741;53.252;5.788;2022-08-11T15:29:21;5.40;;;2.42;;
54123;SDS011;55741;53.252;5.788;2022-08-11T15:32:08;6.30;;;2.50;;
54123;SDS011;55741;53.252;5.788;2022-08-11T15:34:57;3.90;;;2.13;;
54123;SDS011;55741;53.252;5.788;2022-08-11T15:37:44;6.00;;;2.33;;
54123;SDS011;55741;53.252;5.788;2022-08-11T15:46:05;5.80;;;2.30;;
54123;SDS011;55741;53.252;5.788;2022-08-11T15:48:43;4.03;;;2.08;;
54123;SDS011;55741;53.252;5.788;2022-08-11T15:51:20;5.97;;;2.17;;
54123;SDS011;55741;53.252;5.788;2022-08-11T15:54:08;6.15;;;2.30;;
54123;SDS011;55741;53.252;5.788;2022-08-11T15:56:38;4.28;;;2.10;;
54123;SDS011;55741;53.252;5.788;2022-08-11T15:59:07;5.30;;;2.03;;
54123;SDS011;55741;53.252;5.788;2022-08-11T16:01:54;4.00;;;2.05;;
54123;SDS011;55741;53.252;5.788;2022-08-11T16:04:40;7.03;;;2.33;;
54123;SDS011;55741;53.252;5.788;2022-08-11T16:07:13;3.75;;;2.15;;
54123;SDS011;55741;53.252;5.788;2022-08-11T16:09:46;4.97;;;2.63;;
54123;SDS011;55741;53.252;5.788;2022-08-11T16:12:34;4.15;;;2.10;;
54123;SDS011;55741;53.252;5.788;2022-08-11T16:15:46;4.97;;;2.00;;
54123;SDS011;55741;53.252;5.788;2022-08-11T16:18:35;9.80;;;2.30;;
54123;SDS011;55741;53.252;5.788;2022-08-11T16:21:22;9.20;;;2.45;;
54123;SDS011;55741;53.252;5.788;2022-08-11T16:23:52;7.85;;;2.47;;
54123;SDS011;55741;53.252;5.788;2022-08-11T16:26:22;4.97;;;2.10;;
54123;SDS011;55741;53.252;5.788;2022-08-11T16:28:51;4.25;;;2.28;;
54123;SDS011;55741;53.252;5.788;2022-08-11T16:31:20;6.18;;;2.30;;
54123;SDS011;55741;53.252;5.788;2022-08-11T16:33:47;4.07;;;2.20;;
54123;SDS011;55741;53.252;5.788;2022-08-11T16:36:17;6.68;;;2.20;;
54123;SDS011;55741;53.252;5.788;2022-08-11T16:39:04;5.07;;;2.40;;
54123;SDS011;55741;53.252;5.788;2022-08-11T16:41:37;5.55;;;2.50;;
54123;SDS011;55741;53.252;5.788;2022-08-11T16:44:23;4.97;;;2.15;;
54123;SDS011;55741;53.252;5.788;2022-08-11T16:47:10;3.92;;;2.22;;
54123;SDS011;55741;53.252;5.788;2022-08-11T16:49:44;4.28;;;2.25;;
54123;SDS011;55741;53.252;5.788;2022-08-11T16:52:13;4.45;;;2.28;;
54123;SDS011;55741;53.252;5.788;2022-08-11T16:54:41;6.43;;;2.50;;
54123;SDS011;55741;53.252;5.788;2022-08-11T16:57:21;7.32;;;2.10;;
54123;SDS011;55741;53.252;5.788;2022-08-11T17:00:11;5.18;;;2.35;;
54123;SDS011;55741;53.252;5.788;2022-08-11T17:02:49;6.15;;;2.35;;
54123;SDS011;55741;53.252;5.788;2022-08-11T17:05:35;8.93;;;2.50;;
54123;SDS011;55741;53.252;5.788;2022-08-11T17:08:36;4.47;;;2.20;;
54123;SDS011;55741;53.252;5.788;2022-08-11T17:11:38;4.82;;;1.98;;
54123;SDS011;55741;53.252;5.788;2022-08-11T17:14:31;7.13;;;2.20;;
54123;SDS011;55741;53.252;5.788;2022-08-11T17:17:08;6.78;;;2.30;;
54123;SDS011;55741;53.252;5.788;2022-08-11T17:19:40;4.47;;;2.65;;
54123;SDS011;55741;53.252;5.788;2022-08-11T17:22:13;4.22;;;2.35;;
54123;SDS011;55741;53.252;5.788;2022-08-11T17:24:57;8.02;;;2.60;;
54123;SDS011;55741;53.252;5.788;2022-08-11T17:27:24;5.97;;;2.20;;
54123;SDS011;55741;53.252;5.788;2022-08-11T17:29:53;4.82;;;2.70;;
54123;SDS011;55741;53.252;5.788;2022-08-11T17:32:24;6.68;;;2.30;;
54123;SDS011;55741;53.252;5.788;2022-08-11T17:35:16;3.70;;;2.13;;
54123;SDS011;55741;53.252;5.788;2022-08-11T17:38:04;5.85;;;2.63;;
54123;SDS011;55741;53.252;5.788;2022-08-11T17:40:38;3.53;;;2.00;;
54123;SDS011;55741;53.252;5.788;2022-08-11T17:43:25;4.32;;;2.38;;
54123;SDS011;55741;53.252;5.788;2022-08-11T17:46:12;4.15;;;2.70;;
54123;SDS011;55741;53.252;5.788;2022-08-11T17:48:58;7.45;;;2.38;;
54123;SDS011;55741;53.252;5.788;2022-08-11T17:51:24;4.32;;;2.15;;
54123;SDS011;55741;53.252;5.788;2022-08-11T17:54:09;3.95;;;2.10;;
54123;SDS011;55741;53.252;5.788;2022-08-11T17:56:54;5.38;;;2.50;;
54123;SDS011;55741;53.252;5.788;2022-08-11T17:59:40;5.75;;;2.80;;
54123;SDS011;55741;53.252;5.788;2022-08-11T18:02:17;6.95;;;2.60;;
54123;SDS011;55741;53.252;5.788;2022-08-11T18:05:05;5.50;;;2.78;;
54123;SDS011;55741;53.252;5.788;2022-08-11T18:07:31;7.20;;;2.90;;
54123;SDS011;55741;53.252;5.788;2022-08-11T18:10:17;5.13;;;2.60;;
54123;SDS011;55741;53.252;5.788;2022-08-11T18:15:47;4.03;;;2.40;;
54123;SDS011;55741;53.252;5.788;2022-08-11T18:18:33;5.45;;;2.38;;
54123;SDS011;55741;53.252;5.788;2022-08-11T18:21:18;4.10;;;2.40;;
54123;SDS011;55741;53.252;5.788;2022-08-11T18:24:07;7.97;;;2.58;;
54123;SDS011;55741;53.252;5.788;2022-08-11T18:26:55;4.70;;;2.72;;
54123;SDS011;55741;53.252;5.788;2022-08-11T18:29:43;7.18;;;2.67;;
54123;SDS011;55741;53.252;5.788;2022-08-11T18:32:30;3.97;;;2.50;;
54123;SDS011;55741;53.252;5.788;2022-08-11T18:35:17;7.18;;;2.72;;
54123;SDS011;55741;53.252;5.788;2022-08-11T18:38:05;4.00;;;2.40;;
54123;SDS011;55741;53.252;5.788;2022-08-11T18:40:53;7.07;;;2.85;;
54123;SDS011;55741;53.252;5.788;2022-08-11T18:43:40;5.18;;;2.83;;
54123;SDS011;55741;53.252;5.788;2022-08-11T18:46:29;5.05;;;2.92;;
54123;SDS011;55741;53.252;5.788;2022-08-11T18:49:23;4.50;;;2.80;;
54123;SDS011;55741;53.252;5.788;2022-08-11T18:52:10;6.38;;;3.00;;
54123;SDS011;55741;53.252;5.788;2022-08-11T18:54:57;6.28;;;3.38;;
54123;SDS011;55741;53.252;5.788;2022-08-11T18:57:46;7.30;;;3.10;;
54123;SDS011;55741;53.252;5.788;2022-08-11T19:00:33;8.10;;;3.20;;
54123;SDS011;55741;53.252;5.788;2022-08-11T19:03:19;8.85;;;4.80;;
54123;SDS011;55741;53.252;5.788;2022-08-11T19:06:05;8.45;;;3.63;;
54123;SDS011;55741;53.252;5.788;2022-08-11T19:08:52;7.47;;;5.13;;
54123;SDS011;55741;53.252;5.788;2022-08-11T19:11:40;8.70;;;4.70;;
54123;SDS011;55741;53.252;5.788;2022-08-11T19:14:28;6.53;;;3.30;;
54123;SDS011;55741;53.252;5.788;2022-08-11T19:17:13;7.80;;;3.80;;
54123;SDS011;55741;53.252;5.788;2022-08-11T19:20:00;7.20;;;3.83;;
54123;SDS011;55741;53.252;5.788;2022-08-11T19:22:48;7.72;;;3.95;;
54123;SDS011;55741;53.252;5.788;2022-08-11T19:25:35;12.43;;;4.47;;
54123;SDS011;55741;53.252;5.788;2022-08-11T19:28:21;12.18;;;3.97;;
54123;SDS011;55741;53.252;5.788;2022-08-11T19:31:07;8.40;;;4.03;;
54123;SDS011;55741;53.252;5.788;2022-08-11T19:33:52;4.82;;;4.30;;
54123;SDS011;55741;53.252;5.788;2022-08-11T19:36:39;12.07;;;5.10;;
54123;SDS011;55741;53.252;5.788;2022-08-11T19:39:26;9.05;;;4.85;;
54123;SDS011;55741;53.252;5.788;2022-08-11T19:42:12;10.60;;;5.05;;
54123;SDS011;55741;53.252;5.788;2022-08-11T19:44:58;7.93;;;5.15;;
54123;SDS011;55741;53.252;5.788;2022-08-11T19:47:45;9.65;;;5.18;;
54123;SDS011;55741;53.252;5.788;2022-08-11T19:50:31;8.77;;;4.90;;
54123;SDS011;55741;53.252;5.788;2022-08-11T19:53:17;8.32;;;5.25;;